createdAt,value
2022-10-11T00:02:19.286Z,16.02
2022-10-11T00:07:21.980Z,16.03
2022-10-11T00:12:23.589Z,16.04
2022-10-11T00:17:25.443Z,16.07
2022-10-11T00:22:27.828Z,16.09
2022-10-11T00:27:29.663Z,16.12
2022-10-11T00:32:34.081Z,16.12
2022-10-11T00:37:38.024Z,16.12
2022-10-11T00:42:39.887Z,16.12
2022-10-11T00:47:42.134Z,16.14
2022-10-11T00:52:50.066Z,16.17
2022-10-11T00:57:54.528Z,16.19
2022-10-11T01:02:57.733Z,16.22
2022-10-11T01:08:00.848Z,16.24
2022-10-11T01:13:35.760Z,16.27
2022-10-11T01:18:52.544Z,16.28
2022-10-11T01:24:08.786Z,16.29
2022-10-11T01:29:30.057Z,16.29
2022-10-11T01:34:47.946Z,16.31
2022-10-11T01:39:57.631Z,16.31
2022-10-11T01:45:00.229Z,16.32
2022-10-11T01:50:02.616Z,16.33
2022-10-11T01:55:24.024Z,16.31
2022-10-11T02:00:33.507Z,16.27
2022-10-11T02:05:57.460Z,16.26
2022-10-11T02:11:22.358Z,16.24
2022-10-11T02:16:30.266Z,16.19
2022-10-11T02:21:39.404Z,16.17
2022-10-11T02:26:43.870Z,16.16
2022-10-11T02:31:47.455Z,16.14
2022-10-11T02:37:02.251Z,16.13
2022-10-11T02:42:10.470Z,16.10
2022-10-11T02:47:13.105Z,16.07
2022-10-11T02:52:14.871Z,16.06
2022-10-11T02:57:16.902Z,16.06
2022-10-11T03:02:19.282Z,16.04
2022-10-11T03:07:20.906Z,16.04
2022-10-11T03:12:22.833Z,16.04
2022-10-11T03:17:36.050Z,16.04
2022-10-11T03:22:38.754Z,16.04
2022-10-11T03:27:40.383Z,16.05
2022-10-11T03:32:42.135Z,16.05
2022-10-11T03:37:44.020Z,16.02
2022-10-11T03:42:46.433Z,15.99
2022-10-11T03:47:48.333Z,15.95
2022-10-11T03:52:51.154Z,15.90
2022-10-11T03:57:52.800Z,15.87
2022-10-11T04:02:54.607Z,15.85
2022-10-11T04:07:56.624Z,15.87
2022-10-11T04:12:58.254Z,15.85
2022-10-11T04:17:59.984Z,15.85
2022-10-11T04:23:01.771Z,15.87
2022-10-11T04:28:03.501Z,15.84
2022-10-11T04:33:05.314Z,15.79
2022-10-11T04:38:06.954Z,15.78
2022-10-11T04:43:08.620Z,15.80
2022-10-11T04:48:10.287Z,15.81
2022-10-11T04:53:11.914Z,15.84
2022-10-11T04:58:13.509Z,15.85
2022-10-11T05:03:15.086Z,15.89
2022-10-11T05:08:16.936Z,15.92
2022-10-11T05:13:18.552Z,15.95
2022-10-11T05:18:20.471Z,15.99
2022-10-11T05:23:23.464Z,16.00
2022-10-11T05:28:26.009Z,16.03
2022-10-11T05:33:27.748Z,16.04
2022-10-11T05:38:29.454Z,16.06
2022-10-11T05:43:31.505Z,16.09
2022-10-11T05:48:34.737Z,16.12
2022-10-11T05:53:39.320Z,16.14
2022-10-11T05:58:41.249Z,16.16
2022-10-11T06:03:44.567Z,16.16
2022-10-11T06:08:46.608Z,16.17
2022-10-11T06:13:48.945Z,16.17
2022-10-11T06:18:54.698Z,16.16
2022-10-11T06:24:01.196Z,16.14
2022-10-11T06:29:03.749Z,16.15
2022-10-11T06:34:05.602Z,16.16
2022-10-11T06:39:07.487Z,16.17
2022-10-11T06:44:14.172Z,16.19
2022-10-11T06:49:20.672Z,16.16
2022-10-11T06:54:26.978Z,16.14
2022-10-11T06:59:32.412Z,16.14
2022-10-11T07:04:34.279Z,16.13
2022-10-11T07:09:37.342Z,16.14
2022-10-11T07:14:40.427Z,16.19
2022-10-11T07:19:42.040Z,16.25
2022-10-11T07:24:43.859Z,16.33
2022-10-11T07:29:45.520Z,16.31
2022-10-11T07:34:47.194Z,16.38
2022-10-11T07:39:49.390Z,16.43
2022-10-11T07:44:51.632Z,16.50
2022-10-11T07:49:53.226Z,16.57
2022-10-11T07:54:55.020Z,16.63
2022-10-11T07:59:56.802Z,16.70
2022-10-11T08:04:58.517Z,16.75
2022-10-11T08:10:00.143Z,16.77
2022-10-11T08:15:04.039Z,16.82
2022-10-11T08:20:05.966Z,16.83
2022-10-11T08:25:07.897Z,16.80
2022-10-11T08:30:10.490Z,16.80
2022-10-11T08:35:12.150Z,16.80
2022-10-11T08:40:21.345Z,16.74
2022-10-11T08:45:49.133Z,16.72
2022-10-11T08:50:54.557Z,16.75
2022-10-11T08:55:56.233Z,16.79
2022-10-11T09:00:59.366Z,16.83
2022-10-11T09:06:16.314Z,16.86
2022-10-11T09:11:24.897Z,16.91
2022-10-11T09:17:07.441Z,16.93
2022-10-11T09:22:24.789Z,17.04
2022-10-11T09:28:06.670Z,17.15
2022-10-11T09:33:19.086Z,17.25
2022-10-11T09:38:43.539Z,17.32
2022-10-11T09:43:48.556Z,17.36
2022-10-11T09:48:52.742Z,17.38
2022-10-11T09:54:06.425Z,17.39
2022-10-11T09:59:20.373Z,17.39
2022-10-11T10:04:21.997Z,17.45
2022-10-11T10:09:31.199Z,17.50
2022-10-11T10:14:32.817Z,17.58
2022-10-11T10:19:49.019Z,17.65
2022-10-11T10:24:51.955Z,17.72
2022-10-11T10:30:08.707Z,17.79
2022-10-11T10:35:26.215Z,17.88
2022-10-11T10:40:37.594Z,17.98
2022-10-11T10:46:14.075Z,18.07
2022-10-11T10:51:38.434Z,18.15
2022-10-11T10:57:03.265Z,18.19
2022-10-11T11:02:40.844Z,18.21
2022-10-11T11:08:00.355Z,18.27
2022-10-11T11:13:35.753Z,18.35
2022-10-11T11:18:43.656Z,18.52
2022-10-11T11:24:05.058Z,18.66
2022-10-11T11:29:24.435Z,18.75
2022-10-11T11:34:33.336Z,18.80
2022-10-11T11:39:44.986Z,18.81
2022-10-11T11:44:49.434Z,18.80
2022-10-11T11:50:00.001Z,18.76
2022-10-11T11:55:15.472Z,18.73
2022-10-11T12:00:23.486Z,18.69
2022-10-11T12:05:28.922Z,18.69
2022-10-11T12:10:36.692Z,18.68
2022-10-11T12:15:38.477Z,18.53
2022-10-11T12:20:42.009Z,18.49
2022-10-11T12:25:44.649Z,18.51
2022-10-11T12:30:50.929Z,18.54
2022-10-11T12:35:52.988Z,18.49
2022-10-11T12:41:10.699Z,18.45
2022-10-11T12:46:33.573Z,18.50
2022-10-11T12:51:57.181Z,18.61
2022-10-11T12:57:29.141Z,18.72
2022-10-11T13:02:42.674Z,18.83
2022-10-11T13:07:45.454Z,18.90
2022-10-11T13:12:49.085Z,18.96
2022-10-11T13:17:54.115Z,19.01
2022-10-11T13:22:57.034Z,19.04
2022-10-11T13:28:01.436Z,19.07
2022-10-11T13:33:09.525Z,19.10
2022-10-11T13:38:23.929Z,19.12
2022-10-11T13:43:28.574Z,19.15
2022-10-11T13:48:32.097Z,19.18
2022-10-11T13:53:34.286Z,19.20
2022-10-11T13:58:47.288Z,19.32
2022-10-11T14:04:17.345Z,19.41
2022-10-11T14:09:33.897Z,19.46
2022-10-11T14:14:35.798Z,19.52
2022-10-11T14:24:39.891Z,19.62
2022-10-11T14:30:00.261Z,19.64
2022-10-11T14:35:07.183Z,19.65
2022-10-11T14:40:18.059Z,19.64
2022-10-11T14:45:21.242Z,19.65
2022-10-11T14:50:31.966Z,19.65
2022-10-11T14:55:36.710Z,19.67
2022-10-11T15:00:38.391Z,19.66
2022-10-11T15:05:40.259Z,19.64
2022-10-11T15:10:42.170Z,19.65
2022-10-11T15:15:43.851Z,19.63
2022-10-11T15:20:46.711Z,19.64
2022-10-11T15:25:48.384Z,19.65
2022-10-11T15:30:49.990Z,19.64
2022-10-11T15:35:51.674Z,19.63
2022-10-11T15:40:54.868Z,19.62
2022-10-11T15:45:58.032Z,19.57
2022-10-11T15:50:59.897Z,19.52
2022-10-11T15:56:05.123Z,19.46
2022-10-11T16:01:14.802Z,19.39
2022-10-11T16:06:17.705Z,19.32
2022-10-11T16:11:19.525Z,19.24
2022-10-11T16:16:21.105Z,19.16
2022-10-11T16:21:24.159Z,19.08
2022-10-11T16:26:25.703Z,18.99
2022-10-11T16:31:27.808Z,18.90
2022-10-11T16:36:32.497Z,18.81
2022-10-11T16:41:34.263Z,18.70
2022-10-11T16:46:35.923Z,18.62
2022-10-11T16:51:37.458Z,18.54
2022-10-11T16:56:40.213Z,18.45
2022-10-11T17:01:42.775Z,18.38
2022-10-11T17:06:44.973Z,18.30
2022-10-11T17:11:46.716Z,18.23
2022-10-11T17:16:48.405Z,18.17
2022-10-11T17:21:50.216Z,18.12
2022-10-11T17:26:53.401Z,18.07
2022-10-11T17:31:55.464Z,18.02
2022-10-11T17:36:57.170Z,17.96
2022-10-11T17:42:03.395Z,17.86
2022-10-11T17:47:05.182Z,17.77
2022-10-11T17:52:06.808Z,17.71
2022-10-11T17:57:10.160Z,17.67
2022-10-11T18:02:11.799Z,17.62
2022-10-11T18:07:13.567Z,17.55
2022-10-11T18:12:15.186Z,17.51
2022-10-11T18:17:17.809Z,17.47
2022-10-11T18:22:19.511Z,17.43
2022-10-11T18:27:21.334Z,17.39
2022-10-11T18:32:23.957Z,17.33
2022-10-11T18:37:28.143Z,17.29
2022-10-11T18:42:29.808Z,17.23
2022-10-11T18:47:31.397Z,17.18
2022-10-11T18:52:33.105Z,17.11
2022-10-11T18:57:34.913Z,17.05
2022-10-11T19:02:36.611Z,17.00
2022-10-11T19:07:40.222Z,16.95
2022-10-11T19:12:41.814Z,16.89
2022-10-11T19:17:43.700Z,16.84
2022-10-11T19:22:46.789Z,16.79
2022-10-11T19:27:48.387Z,16.73
2022-10-11T19:32:50.460Z,16.69
2022-10-11T19:37:52.093Z,16.61
2022-10-11T19:42:53.841Z,16.57
2022-10-11T19:47:55.431Z,16.52
2022-10-11T19:52:57.205Z,16.47
2022-10-11T19:57:58.869Z,16.43
2022-10-11T20:03:01.458Z,16.40
2022-10-11T20:08:04.251Z,16.36
2022-10-11T20:13:11.680Z,16.31
2022-10-11T20:18:13.423Z,16.25
2022-10-11T20:23:18.265Z,16.19
2022-10-11T20:28:20.283Z,16.14
2022-10-11T20:33:22.243Z,16.10
2022-10-11T20:38:24.247Z,16.06
2022-10-11T20:43:26.231Z,16.03
2022-10-11T20:48:30.093Z,16.00
2022-10-11T20:53:31.755Z,15.98
2022-10-11T20:58:34.470Z,15.95
2022-10-11T21:03:36.542Z,15.93
2022-10-11T21:08:39.536Z,15.94
2022-10-11T21:13:41.252Z,15.92
2022-10-11T21:18:42.906Z,15.92
2022-10-11T21:23:47.975Z,15.92
2022-10-11T21:28:49.934Z,15.92
2022-10-11T21:33:51.884Z,15.91
2022-10-11T21:38:53.766Z,15.88
2022-10-11T21:43:56.702Z,15.87
2022-10-11T21:48:58.679Z,15.86
2022-10-11T21:54:00.820Z,15.85
2022-10-11T21:59:06.555Z,15.84
2022-10-11T22:04:11.936Z,15.81
2022-10-11T22:09:13.590Z,15.80
2022-10-11T22:14:15.734Z,15.77
2022-10-11T22:19:17.391Z,15.74
2022-10-11T22:24:19.209Z,15.71
2022-10-11T22:29:21.225Z,15.69
2022-10-11T22:34:22.992Z,15.66
2022-10-11T22:39:24.673Z,15.64
2022-10-11T22:44:26.305Z,15.61
2022-10-11T22:49:28.619Z,15.59
2022-10-11T22:54:30.185Z,15.55
2022-10-11T22:59:32.957Z,15.51
2022-10-11T23:04:34.905Z,15.48
2022-10-11T23:09:36.564Z,15.46
2022-10-11T23:14:38.283Z,15.43
2022-10-11T23:19:40.376Z,15.39
2022-10-11T23:24:42.568Z,15.38
2022-10-11T23:29:46.120Z,15.37
2022-10-11T23:34:47.779Z,15.33
2022-10-11T23:39:49.620Z,15.33
2022-10-11T23:44:52.871Z,15.32
2022-10-11T23:49:54.621Z,15.31
2022-10-11T23:54:56.289Z,15.30
